Time;durP1;ratioP1;P1;durP2;ratioP2;P2;SDS_P1;SDS_P2;PMS_P1;PMS_P2;Temp;Humidity;BMP_temperature;BMP_pressure;BME280_temperature;BME280_humidity;BME280_pressure;Samples;Min_cycle;Max_cycle;Signal;HPM_P1;HPM_P2
2021/11/18 00:02:29;;;;;;;3.55;1.25;;;21.60;47.30;;;;;;4948642;29;20282;-48
2021/11/18 00:05:02;;;;;;;3.92;1.30;;;21.60;47.30;;;;;;4952644;28;20229;-49
2021/11/18 00:07:33;;;;;;;3.50;1.50;;;21.70;47.20;;;;;;4952281;28;20277;-52
2021/11/18 00:10:03;;;;;;;3.80;1.00;;;21.70;47.20;;;;;;4952693;28;20285;-51
2021/11/18 00:12:34;;;;;;;4.50;1.42;;;21.70;47.10;;;;;;4952417;28;20274;-52
2021/11/18 00:15:04;;;;;;;3.40;1.17;;;21.70;47.20;;;;;;4952675;28;20671;-49
2021/11/18 00:17:35;;;;;;;3.15;1.17;;;21.70;47.10;;;;;;4951822;29;20195;-49
2021/11/18 00:20:09;;;;;;;4.70;1.60;;;21.70;47.10;;;;;;4951319;28;20195;-51
2021/11/18 00:22:40;;;;;;;2.22;0.90;;;21.80;47.20;;;;;;4951223;28;20213;-52
2021/11/18 00:25:11;;;;;;;3.22;1.05;;;21.80;47.20;;;;;;4952269;28;20666;-52
2021/11/18 00:27:41;;;;;;;3.58;1.25;;;21.80;47.20;;;;;;4952067;28;20199;-49
2021/11/18 00:30:14;;;;;;;3.65;1.25;;;21.80;47.20;;;;;;4952198;28;20199;-52
2021/11/18 00:32:45;;;;;;;4.43;1.20;;;21.90;47.20;;;;;;4952182;29;20738;-52
2021/11/18 00:35:21;;;;;;;3.75;1.00;;;21.90;47.30;;;;;;4952448;28;20660;-48
2021/11/18 00:37:52;;;;;;;3.80;1.20;;;21.90;47.30;;;;;;4952052;28;20232;-51
2021/11/18 00:40:24;;;;;;;2.50;1.00;;;21.90;47.20;;;;;;4951824;28;20213;-51
2021/11/18 00:42:55;;;;;;;5.07;1.15;;;21.90;47.20;;;;;;4951948;28;20197;-51
2021/11/18 00:45:28;;;;;;;4.30;1.13;;;22.00;47.30;;;;;;4951071;28;20609;-48
2021/11/18 00:47:59;;;;;;;4.28;1.30;;;22.00;47.80;;;;;;4952150;28;20203;-49
2021/11/18 00:50:33;;;;;;;4.28;1.25;;;22.00;47.10;;;;;;4952308;28;20206;-50
2021/11/18 00:53:04;;;;;;;2.25;0.90;;;22.00;47.10;;;;;;4951408;28;20196;-49
2021/11/18 00:55:35;;;;;;;4.00;1.30;;;22.10;47.10;;;;;;4951532;28;20219;-55
2021/11/18 00:58:06;;;;;;;5.65;1.45;;;22.00;47.00;;;;;;4951469;28;20286;-50
2021/11/18 01:00:38;;;;;;;3.65;1.27;;;22.10;47.00;;;;;;4951104;28;20291;-47
2021/11/18 01:03:09;;;;;;;3.38;1.38;;;22.10;47.00;;;;;;4951451;28;20298;-48
2021/11/18 01:05:44;;;;;;;2.80;1.00;;;22.10;47.00;;;;;;4950799;28;20775;-50
2021/11/18 01:08:15;;;;;;;4.15;0.95;;;22.10;47.00;;;;;;4951107;29;20278;-46
2021/11/18 01:10:47;;;;;;;6.15;1.40;;;22.10;46.90;;;;;;4951563;28;20281;-51
2021/11/18 01:13:19;;;;;;;3.80;1.27;;;22.20;47.00;;;;;;4951516;28;20205;-49
2021/11/18 01:15:50;;;;;;;4.97;1.38;;;22.20;46.90;;;;;;4951141;28;20695;-49
2021/11/18 01:18:21;;;;;;;3.55;1.35;;;22.20;46.90;;;;;;4951168;28;20286;-52
2021/11/18 01:20:54;;;;;;;3.83;1.23;;;22.20;47.00;;;;;;4951506;28;20277;-51
2021/11/18 01:23:27;;;;;;;4.25;1.10;;;22.20;46.90;;;;;;4950999;28;20290;-51
2021/11/18 01:25:58;;;;;;;3.83;1.20;;;22.20;46.90;;;;;;4951094;28;20341;-52
2021/11/18 01:28:28;;;;;;;4.10;1.40;;;22.30;46.90;;;;;;4951406;28;20198;-49
2021/11/18 01:30:59;;;;;;;5.25;1.55;;;22.30;46.90;;;;;;4950346;28;20198;-51
2021/11/18 01:33:30;;;;;;;4.43;1.10;;;22.30;47.40;;;;;;4950310;28;20274;-50
2021/11/18 01:36:03;;;;;;;3.72;1.40;;;22.30;46.90;;;;;;4950643;28;20207;-52
2021/11/18 01:38:35;;;;;;;2.47;1.20;;;22.40;46.80;;;;;;4950543;28;20225;-50
2021/11/18 01:41:09;;;;;;;4.72;0.98;;;22.30;46.70;;;;;;4950659;29;20541;-55
2021/11/18 01:43:41;;;;;;;4.03;1.27;;;22.40;46.80;;;;;;4951073;28;20274;-52
2021/11/18 01:46:14;;;;;;;4.25;1.42;;;22.40;46.80;;;;;;4950715;28;20248;-50
2021/11/18 01:48:50;;;;;;;5.00;1.00;;;22.40;46.80;;;;;;4951023;28;20273;-48
2021/11/18 01:51:26;;;;;;;3.70;1.50;;;22.40;46.80;;;;;;4950603;28;20298;-53
2021/11/18 01:53:56;;;;;;;4.38;1.30;;;22.40;46.80;;;;;;4950120;28;20592;-50
2021/11/18 01:56:29;;;;;;;1.80;0.80;;;22.40;46.70;;;;;;4950049;28;20241;-49
2021/11/18 01:59:01;;;;;;;3.50;1.20;;;22.40;46.70;;;;;;4950616;28;20205;-48
2021/11/18 02:01:31;;;;;;;5.75;1.50;;;22.50;46.70;;;;;;4950318;28;20280;-54
2021/11/18 02:04:02;;;;;;;5.78;1.23;;;22.50;46.60;;;;;;4949740;29;20225;-51
2021/11/18 02:06:36;;;;;;;3.63;1.38;;;22.50;46.60;;;;;;4950330;28;20652;-53
2021/11/18 02:09:10;;;;;;;4.80;1.20;;;22.50;46.60;;;;;;4950837;28;20198;-47
2021/11/18 02:11:43;;;;;;;4.45;1.38;;;22.50;46.70;;;;;;4950487;28;20739;-51
2021/11/18 02:14:16;;;;;;;3.47;1.20;;;22.60;46.60;;;;;;4950443;28;20631;-48
2021/11/18 02:16:47;;;;;;;3.10;1.20;;;22.60;46.60;;;;;;4950047;28;20364;-52
2021/11/18 02:19:20;;;;;;;4.43;1.25;;;22.60;46.60;;;;;;4950428;28;21773;-49
2021/11/18 02:21:54;;;;;;;3.47;1.40;;;22.60;46.60;;;;;;4949658;29;20198;-47
2021/11/18 02:24:26;;;;;;;4.20;1.08;;;22.60;46.50;;;;;;4949471;28;20225;-49
2021/11/18 02:26:58;;;;;;;2.72;1.40;;;22.60;46.50;;;;;;4950460;28;20230;-50
2021/11/18 02:29:28;;;;;;;5.25;1.15;;;22.70;46.40;;;;;;4951266;28;20211;-47
2021/11/18 02:32:01;;;;;;;4.03;1.00;;;22.70;46.40;;;;;;4950046;28;20226;-47
2021/11/18 02:34:38;;;;;;;3.58;1.02;;;22.70;46.40;;;;;;4950192;28;20214;-48
2021/11/18 02:37:10;;;;;;;4.78;1.27;;;22.70;46.40;;;;;;4950219;28;20286;-48
2021/11/18 02:39:41;;;;;;;6.18;1.00;;;22.80;46.40;;;;;;4950181;28;20205;-51
2021/11/18 02:42:13;;;;;;;3.38;0.90;;;22.80;46.30;;;;;;4949852;28;20277;-52
2021/11/18 02:44:44;;;;;;;4.68;1.27;;;22.70;46.10;;;;;;4951422;28;20305;-50
2021/11/18 02:47:14;;;;;;;5.05;1.27;;;22.80;46.20;;;;;;4953569;28;20229;-46
2021/11/18 02:49:46;;;;;;;2.35;1.00;;;22.80;46.20;;;;;;4954376;28;20305;-52
2021/11/18 02:52:20;;;;;;;3.20;1.27;;;22.80;46.10;;;;;;4953775;28;20408;-50
2021/11/18 02:54:50;;;;;;;4.28;1.27;;;22.80;46.10;;;;;;4954010;28;20293;-51
2021/11/18 02:57:21;;;;;;;2.15;0.90;;;22.80;46.10;;;;;;4953833;28;20199;-49
2021/11/18 02:59:51;;;;;;;6.07;1.50;;;22.80;46.10;;;;;;4953446;29;20199;-47
2021/11/18 03:02:22;;;;;;;3.58;1.00;;;22.80;46.00;;;;;;4952896;28;20203;-52
2021/11/18 03:04:52;;;;;;;3.58;1.30;;;22.90;46.00;;;;;;4951261;29;20225;-47
2021/11/18 03:07:25;;;;;;;4.13;1.08;;;22.90;46.00;;;;;;4953922;28;20313;-52
2021/11/18 03:09:55;;;;;;;2.85;0.93;;;22.90;45.90;;;;;;4951848;28;20289;-51
2021/11/18 03:12:25;;;;;;;3.75;0.95;;;22.90;45.90;;;;;;4952251;28;20314;-54
2021/11/18 03:14:56;;;;;;;4.35;0.85;;;22.90;45.80;;;;;;4945753;28;20220;-49
2021/11/18 03:17:26;;;;;;;2.95;0.88;;;22.90;45.80;;;;;;4951118;28;20203;-50
2021/11/18 03:19:57;;;;;;;2.08;0.93;;;22.90;45.80;;;;;;4949965;28;20199;-53
2021/11/18 03:22:29;;;;;;;2.60;1.08;;;22.90;45.70;;;;;;4951077;28;20652;-53
2021/11/18 03:24:59;;;;;;;3.13;0.85;;;22.90;45.60;;;;;;4951593;28;20229;-53
2021/11/18 03:27:30;;;;;;;3.40;1.00;;;22.90;45.60;;;;;;4952159;29;20235;-51
2021/11/18 03:30:00;;;;;;;1.48;0.85;;;22.90;45.50;;;;;;4951417;28;20297;-50
2021/11/18 03:32:31;;;;;;;1.88;0.93;;;23.00;45.50;;;;;;4950939;28;20307;-48
2021/11/18 03:35:01;;;;;;;4.55;1.00;;;23.00;45.50;;;;;;4951310;28;20699;-53
2021/11/18 03:37:34;;;;;;;2.47;0.93;;;23.00;45.50;;;;;;4951231;28;20282;-48
2021/11/18 03:40:04;;;;;;;3.55;1.17;;;23.00;45.50;;;;;;4950560;28;20229;-47
2021/11/18 03:42:35;;;;;;;3.30;1.00;;;23.10;45.40;;;;;;4951100;28;20206;-52
2021/11/18 03:45:07;;;;;;;3.78;1.00;;;23.00;45.30;;;;;;4951361;29;20615;-49
2021/11/18 03:47:37;;;;;;;3.22;0.82;;;23.10;45.30;;;;;;4951557;28;20313;-52
2021/11/18 03:50:09;;;;;;;3.55;1.05;;;23.10;45.30;;;;;;4952112;28;20222;-49
2021/11/18 03:52:42;;;;;;;3.72;1.08;;;23.10;45.20;;;;;;4950495;28;20286;-48
2021/11/18 03:55:14;;;;;;;2.10;0.70;;;23.10;45.20;;;;;;4949985;28;20254;-47
2021/11/18 03:57:45;;;;;;;2.97;1.00;;;23.20;45.20;;;;;;4950772;28;20302;-53
2021/11/18 04:00:19;;;;;;;2.78;0.88;;;23.10;45.10;;;;;;4951689;29;20289;-50
2021/11/18 04:02:50;;;;;;;3.03;1.00;;;23.20;45.10;;;;;;4951766;28;20639;-51
2021/11/18 04:05:22;;;;;;;2.25;0.85;;;23.20;45.60;;;;;;4951379;28;20335;-50
2021/11/18 04:07:55;;;;;;;2.40;0.90;;;23.20;45.00;;;;;;4950671;28;20240;-47
2021/11/18 04:10:27;;;;;;;4.68;1.20;;;23.20;45.00;;;;;;4950399;28;20225;-49
2021/11/18 04:12:58;;;;;;;3.10;1.02;;;23.20;44.90;;;;;;4950880;28;20594;-47
2021/11/18 04:15:29;;;;;;;2.97;0.90;;;23.20;44.90;;;;;;4950422;28;20223;-51
2021/11/18 04:18:00;;;;;;;3.88;1.13;;;23.20;44.80;;;;;;4951378;29;20207;-52
2021/11/18 04:20:31;;;;;;;3.33;1.08;;;23.20;44.80;;;;;;4951231;28;20286;-55
2021/11/18 04:23:06;;;;;;;3.13;1.02;;;23.20;44.80;;;;;;4949774;28;20325;-49
2021/11/18 04:25:38;;;;;;;2.95;0.80;;;23.30;44.80;;;;;;4949666;28;20792;-49
2021/11/18 04:28:10;;;;;;;4.30;1.23;;;23.30;44.80;;;;;;4950682;28;20226;-49
2021/11/18 04:30:42;;;;;;;2.08;0.77;;;23.30;44.80;;;;;;4951297;28;20563;-54
2021/11/18 04:33:13;;;;;;;3.30;1.02;;;23.30;44.70;;;;;;4951040;28;20671;-52
2021/11/18 04:35:44;;;;;;;3.53;0.95;;;23.40;44.80;;;;;;4950056;29;20221;-50
2021/11/18 04:38:16;;;;;;;3.22;1.10;;;23.40;44.70;;;;;;4947341;28;20205;-51
2021/11/18 04:40:47;;;;;;;4.65;1.08;;;23.40;44.70;;;;;;4951041;28;20207;-47
2021/11/18 04:43:17;;;;;;;2.65;0.88;;;23.40;44.70;;;;;;4950355;28;20198;-52
2021/11/18 04:45:48;;;;;;;4.10;1.00;;;23.40;44.60;;;;;;4949849;28;20214;-52
2021/11/18 04:48:18;;;;;;;2.15;0.75;;;23.40;44.70;;;;;;4950183;28;20227;-56
2021/11/18 04:50:49;;;;;;;3.90;1.20;;;23.50;44.70;;;;;;4950895;28;20202;-51
2021/11/18 04:53:26;;;;;;;3.25;1.20;;;23.50;44.60;;;;;;4949882;28;20195;-54
2021/11/18 04:55:56;;;;;;;4.28;1.10;;;23.50;44.60;;;;;;4949937;28;20245;-56
2021/11/18 04:58:27;;;;;;;3.13;0.95;;;23.50;44.50;;;;;;4950152;28;20213;-57
2021/11/18 05:00:58;;;;;;;5.45;1.10;;;23.50;44.50;;;;;;4949621;28;20702;-51
2021/11/18 05:03:30;;;;;;;2.30;0.90;;;23.50;44.50;;;;;;4949055;28;20215;-55
2021/11/18 05:06:01;;;;;;;3.45;0.90;;;23.50;44.50;;;;;;4948025;28;20199;-55
2021/11/18 05:08:33;;;;;;;2.33;0.95;;;23.60;44.50;;;;;;4949594;28;20570;-51
2021/11/18 05:11:03;;;;;;;2.15;0.93;;;23.50;44.50;;;;;;4950681;28;20191;-55
2021/11/18 05:13:34;;;;;;;3.25;0.90;;;23.60;44.50;;;;;;4950091;28;20298;-56
2021/11/18 05:16:08;;;;;;;4.85;0.90;;;23.60;44.40;;;;;;4949388;28;20199;-53
2021/11/18 05:18:39;;;;;;;2.67;0.98;;;23.60;44.30;;;;;;4949672;28;20326;-54
2021/11/18 05:21:10;;;;;;;3.80;0.90;;;23.60;44.30;;;;;;4949449;28;20573;-46
2021/11/18 05:23:44;;;;;;;6.25;1.20;;;23.70;44.40;;;;;;4949130;28;20632;-46
2021/11/18 05:26:16;;;;;;;6.05;1.40;;;23.70;44.30;;;;;;4949815;28;20318;-46
2021/11/18 05:28:46;;;;;;;3.55;1.15;;;23.60;44.30;;;;;;4949108;28;20191;-46
2021/11/18 05:31:18;;;;;;;3.83;1.17;;;23.70;44.30;;;;;;4949487;28;20195;-46
2021/11/18 05:33:50;;;;;;;2.65;0.88;;;23.60;44.20;;;;;;4949398;28;20199;-46
2021/11/18 05:36:21;;;;;;;2.97;0.95;;;23.60;44.30;;;;;;4948992;28;20746;-46
2021/11/18 05:38:54;;;;;;;3.35;0.68;;;23.60;44.20;;;;;;4948409;28;20206;-47
2021/11/18 05:41:24;;;;;;;10.98;2.08;;;23.60;44.20;;;;;;4948395;28;20286;-49
2021/11/18 05:44:01;;;;;;;12.73;1.95;;;23.70;44.30;;;;;;4947927;28;20258;-48
2021/11/18 05:46:33;;;;;;;5.53;1.77;;;23.70;44.40;;;;;;4948871;28;20198;-47
2021/11/18 05:49:04;;;;;;;4.50;1.52;;;23.60;44.30;;;;;;4948582;28;20205;-47
2021/11/18 05:51:34;;;;;;;5.18;1.60;;;23.60;44.30;;;;;;4948654;28;20290;-50
2021/11/18 05:54:08;;;;;;;8.38;1.45;;;23.60;44.30;;;;;;4948660;28;20306;-52
2021/11/18 05:56:39;;;;;;;7.38;1.50;;;23.60;44.30;;;;;;4948960;28;20268;-50
2021/11/18 05:59:10;;;;;;;10.88;1.70;;;23.60;44.20;;;;;;4948238;28;20217;-48
2021/11/18 06:01:41;;;;;;;8.63;1.23;;;23.60;44.20;;;;;;4948832;29;20242;-50
2021/11/18 06:04:11;;;;;;;4.72;1.23;;;23.60;44.30;;;;;;4947315;28;20217;-47
2021/11/18 06:06:42;;;;;;;10.75;1.95;;;23.60;44.30;;;;;;4948236;28;20307;-51
2021/11/18 06:09:15;;;;;;;6.97;1.42;;;23.50;44.30;;;;;;4947764;28;20238;-48
2021/11/18 06:11:46;;;;;;;4.97;1.08;;;23.50;44.30;;;;;;4947406;28;20293;-55
2021/11/18 06:14:17;;;;;;;7.43;1.48;;;23.50;44.30;;;;;;4948189;28;20233;-49
2021/11/18 06:16:48;;;;;;;5.97;1.52;;;23.50;44.30;;;;;;4948607;28;20715;-48
2021/11/18 06:19:18;;;;;;;4.70;1.30;;;23.50;44.30;;;;;;4948105;28;20615;-48
2021/11/18 06:21:52;;;;;;;4.63;1.20;;;23.50;44.30;;;;;;4943399;28;20213;-48
2021/11/18 06:24:26;;;;;;;5.30;1.20;;;23.50;44.30;;;;;;4946946;28;20273;-46
2021/11/18 06:27:00;;;;;;;3.97;1.20;;;23.50;44.30;;;;;;4947494;28;20233;-48
2021/11/18 06:29:31;;;;;;;7.05;1.20;;;23.50;44.30;;;;;;4948252;28;20705;-48
2021/11/18 06:32:03;;;;;;;4.57;1.08;;;23.50;44.30;;;;;;4948022;28;20205;-47
2021/11/18 06:34:34;;;;;;;4.20;1.35;;;23.50;44.30;;;;;;4948178;29;20237;-50
2021/11/18 06:37:05;;;;;;;6.03;1.55;;;23.50;44.30;;;;;;4948397;29;20202;-48
2021/11/18 06:39:37;;;;;;;12.68;2.17;;;23.50;44.30;;;;;;4948509;28;20718;-47
2021/11/18 06:42:09;;;;;;;23.00;2.83;;;23.50;44.30;;;;;;4947848;28;20206;-47
2021/11/18 06:44:40;;;;;;;13.73;2.97;;;23.50;44.40;;;;;;4947534;28;20215;-47
2021/11/18 06:47:11;;;;;;;13.82;2.78;;;23.50;44.40;;;;;;4948787;28;20849;-47
2021/11/18 06:49:41;;;;;;;18.70;2.85;;;23.50;44.40;;;;;;4947663;28;20210;-48
2021/11/18 06:52:12;;;;;;;21.33;3.10;;;23.50;44.50;;;;;;4943663;28;20298;-47
2021/11/18 06:54:45;;;;;;;16.65;2.35;;;23.50;44.50;;;;;;4948403;28;20215;-46
2021/11/18 06:57:17;;;;;;;15.00;2.33;;;23.50;44.60;;;;;;4948013;28;20202;-46
2021/11/18 06:59:47;;;;;;;18.27;2.58;;;23.50;44.50;;;;;;4947473;28;20206;-49
2021/11/18 07:02:18;;;;;;;16.60;2.30;;;23.50;44.50;;;;;;4947294;28;20233;-46
2021/11/18 07:04:49;;;;;;;13.95;2.08;;;23.50;44.50;;;;;;4948136;28;20218;-52
2021/11/18 07:07:19;;;;;;;12.80;2.33;;;23.50;44.50;;;;;;4947202;28;20258;-50
2021/11/18 07:09:51;;;;;;;9.55;2.10;;;23.50;44.50;;;;;;4948137;28;20195;-51
2021/11/18 07:12:23;;;;;;;8.57;1.90;;;23.50;44.40;;;;;;4947853;28;20195;-49
2021/11/18 07:14:54;;;;;;;10.27;1.95;;;23.50;44.50;;;;;;4947277;28;20219;-46
2021/11/18 07:17:25;;;;;;;10.20;1.77;;;23.50;44.50;;;;;;4945565;28;20207;-52
2021/11/18 07:19:55;;;;;;;8.35;2.08;;;23.40;44.40;;;;;;4947022;28;20298;-51
2021/11/18 07:22:28;;;;;;;8.15;1.60;;;23.50;44.50;;;;;;4946162;28;20203;-49
2021/11/18 07:25:01;;;;;;;10.75;1.67;;;23.40;44.50;;;;;;4946496;28;20251;-48
2021/11/18 07:27:32;;;;;;;8.95;1.83;;;23.40;44.50;;;;;;4947782;28;20229;-47
2021/11/18 07:30:02;;;;;;;7.88;2.08;;;23.40;44.60;;;;;;4948110;28;20199;-49
2021/11/18 07:32:32;;;;;;;7.88;1.85;;;23.40;44.60;;;;;;4951003;28;20203;-47
2021/11/18 07:35:03;;;;;;;8.52;2.00;;;23.30;44.70;;;;;;4951042;28;20221;-48
2021/11/18 07:37:33;;;;;;;9.75;1.63;;;23.40;44.80;;;;;;4951363;28;20301;-50
2021/11/18 07:40:06;;;;;;;10.02;1.85;;;23.30;44.80;;;;;;4951859;28;20213;-48
2021/11/18 07:42:38;;;;;;;6.00;1.63;;;23.30;44.70;;;;;;4950778;28;20673;-48
2021/11/18 07:45:10;;;;;;;7.55;1.75;;;23.30;44.80;;;;;;4951001;28;20586;-47
2021/11/18 07:47:41;;;;;;;6.55;1.60;;;23.30;44.80;;;;;;4951261;28;20230;-48
2021/11/18 07:50:14;;;;;;;11.10;1.75;;;23.30;44.80;;;;;;4950726;28;20199;-48
2021/11/18 07:52:45;;;;;;;11.98;1.70;;;23.20;44.80;;;;;;4950887;28;20209;-51
2021/11/18 07:55:20;;;;;;;7.60;1.40;;;23.20;44.90;;;;;;4946899;28;20309;-49
2021/11/18 07:57:50;;;;;;;4.97;1.45;;;23.20;44.90;;;;;;4951241;28;20293;-49
2021/11/18 08:00:23;;;;;;;6.50;1.60;;;23.20;44.90;;;;;;4951603;28;20278;-51
2021/11/18 08:02:54;;;;;;;7.63;1.77;;;23.20;44.90;;;;;;4950730;28;20565;-49
2021/11/18 08:05:25;;;;;;;8.90;1.58;;;23.20;45.00;;;;;;4949163;28;20225;-48
2021/11/18 08:07:55;;;;;;;9.27;1.98;;;23.10;45.00;;;;;;4949145;28;20221;-51
2021/11/18 08:10:27;;;;;;;15.75;2.47;;;23.10;45.10;;;;;;4950469;28;20289;-48
2021/11/18 08:12:59;;;;;;;15.02;2.08;;;23.00;45.20;;;;;;4950619;28;20203;-51
2021/11/18 08:15:30;;;;;;;11.05;2.50;;;23.10;45.30;;;;;;4950393;28;20306;-50
2021/11/18 08:18:01;;;;;;;11.55;2.20;;;23.00;45.30;;;;;;4951337;28;20213;-46
2021/11/18 08:20:32;;;;;;;13.48;2.50;;;23.00;45.30;;;;;;4950072;28;20290;-52
2021/11/18 08:23:03;;;;;;;10.90;2.33;;;23.00;45.30;;;;;;4950783;28;20221;-51
2021/11/18 08:25:37;;;;;;;9.27;2.33;;;23.00;46.00;;;;;;4945441;28;20219;-48
2021/11/18 08:28:08;;;;;;;14.25;2.33;;;23.00;45.40;;;;;;4949909;28;20340;-52
2021/11/18 08:30:41;;;;;;;9.05;2.33;;;22.90;45.30;;;;;;4950756;28;20203;-49
2021/11/18 08:33:13;;;;;;;10.65;2.28;;;22.90;45.30;;;;;;4951157;28;20242;-50
2021/11/18 08:35:43;;;;;;;8.48;2.13;;;22.90;45.30;;;;;;4950940;28;20215;-50
2021/11/18 08:38:16;;;;;;;12.43;2.33;;;22.90;45.30;;;;;;4950088;28;20195;-49
2021/11/18 08:40:51;;;;;;;7.05;1.58;;;22.80;45.30;;;;;;4949697;28;20290;-53
2021/11/18 08:43:26;;;;;;;11.23;2.08;;;22.80;45.30;;;;;;4949438;28;20667;-49
2021/11/18 08:45:57;;;;;;;8.63;2.25;;;22.80;45.50;;;;;;4949653;28;20860;-50
2021/11/18 08:48:28;;;;;;;8.13;1.67;;;22.70;45.40;;;;;;4950056;28;20946;-52
2021/11/18 08:50:59;;;;;;;9.75;1.88;;;22.70;45.40;;;;;;4950125;29;20219;-51
2021/11/18 08:53:33;;;;;;;5.18;1.40;;;22.70;45.50;;;;;;4951334;28;20282;-54
2021/11/18 08:56:06;;;;;;;9.63;2.17;;;22.60;45.50;;;;;;4949634;28;20199;-52
2021/11/18 08:58:41;;;;;;;7.30;1.70;;;22.60;45.60;;;;;;4948260;28;20199;-50
2021/11/18 09:01:15;;;;;;;7.72;1.90;;;22.60;45.50;;;;;;4949976;28;20281;-48
2021/11/18 09:03:45;;;;;;;6.78;1.73;;;22.60;45.50;;;;;;4949290;28;20659;-47
2021/11/18 09:06:18;;;;;;;8.82;1.95;;;22.50;45.50;;;;;;4949168;28;20204;-50
2021/11/18 09:08:48;;;;;;;7.40;1.63;;;22.50;45.60;;;;;;4949619;29;20229;-46
2021/11/18 09:11:21;;;;;;;5.72;1.58;;;22.50;45.60;;;;;;4946571;28;20209;-50
2021/11/18 09:13:53;;;;;;;8.35;1.60;;;22.50;45.60;;;;;;4948768;28;20229;-49
2021/11/18 09:16:25;;;;;;;5.88;1.80;;;22.40;45.80;;;;;;4948719;28;20670;-49
2021/11/18 09:18:55;;;;;;;8.00;1.67;;;22.40;45.60;;;;;;4949079;28;21792;-51
2021/11/18 09:21:28;;;;;;;6.30;1.70;;;22.40;45.60;;;;;;4948751;28;20294;-48
2021/11/18 09:24:03;;;;;;;7.93;1.48;;;22.30;45.60;;;;;;4949097;28;20226;-51
2021/11/18 09:26:38;;;;;;;6.15;1.40;;;22.30;45.70;;;;;;4949455;28;20287;-51
2021/11/18 09:29:10;;;;;;;5.78;1.80;;;22.30;45.70;;;;;;4948181;28;20222;-49
2021/11/18 09:31:40;;;;;;;4.35;1.42;;;22.30;45.70;;;;;;4949060;28;20297;-48
2021/11/18 09:34:10;;;;;;;4.13;1.20;;;22.20;46.30;;;;;;4948301;28;20246;-49
2021/11/18 09:36:41;;;;;;;4.15;1.17;;;22.20;45.70;;;;;;4949462;28;20211;-48
2021/11/18 09:39:13;;;;;;;4.30;1.60;;;22.20;45.70;;;;;;4949556;28;20210;-49
2021/11/18 09:41:54;;;;;;;6.00;1.33;;;22.10;45.70;;;;;;4949764;28;20211;-47
2021/11/18 09:44:46;;;;;;;4.97;1.48;;;22.10;45.70;;;;;;4949096;29;20242;-46
2021/11/18 09:47:58;;;;;;;5.13;1.15;;;22.10;45.70;;;;;;4950042;28;20282;-53
2021/11/18 09:50:41;;;;;;;7.15;1.73;;;22.10;45.70;;;;;;4949522;29;20787;-50
2021/11/18 09:53:20;;;;;;;6.07;1.25;;;22.00;45.70;;;;;;4949525;28;20203;-48
2021/11/18 09:55:58;;;;;;;4.90;1.17;;;22.00;45.70;;;;;;4948994;28;20309;-51
2021/11/18 09:58:55;;;;;;;4.18;1.05;;;22.00;45.80;;;;;;4948662;28;20282;-47
2021/11/18 10:01:53;;;;;;;3.25;1.13;;;21.90;45.80;;;;;;4948929;28;20195;-49
2021/11/18 10:04:40;;;;;;;3.13;1.10;;;21.90;45.80;;;;;;4948782;28;20278;-50
2021/11/18 10:07:14;;;;;;;5.47;0.98;;;21.90;45.80;;;;;;4947604;28;20286;-51
2021/11/18 10:09:48;;;;;;;3.78;1.30;;;21.80;45.90;;;;;;4948687;28;20712;-50
2021/11/18 10:12:28;;;;;;;3.20;1.30;;;21.80;45.90;;;;;;4950662;28;20282;-48
2021/11/18 10:15:05;;;;;;;2.97;0.95;;;21.80;45.90;;;;;;4950028;28;20643;-46
2021/11/18 10:17:37;;;;;;;6.80;1.20;;;21.70;45.90;;;;;;4949416;28;20198;-51
2021/11/18 10:20:10;;;;;;;2.15;1.10;;;21.70;45.90;;;;;;4933948;29;20777;-46
2021/11/18 10:22:43;;;;;;;5.63;1.08;;;21.70;45.90;;;;;;4947910;28;20629;-48
2021/11/18 10:25:16;;;;;;;4.25;1.30;;;21.60;45.80;;;;;;4947615;28;20766;-47
2021/11/18 10:27:49;;;;;;;3.35;1.15;;;21.60;45.90;;;;;;4949471;28;20290;-51
2021/11/18 10:30:36;;;;;;;5.53;1.60;;;21.60;45.90;;;;;;4943000;28;20203;-46
2021/11/18 10:33:11;;;;;;;1.92;0.93;;;21.60;45.90;;;;;;4942962;28;20664;-47
2021/11/18 10:35:46;;;;;;;2.13;0.93;;;21.60;45.90;;;;;;4947889;28;20241;-47
2021/11/18 10:38:26;;;;;;;2.88;0.90;;;21.50;45.90;;;;;;4937161;29;20209;-47
2021/11/18 10:41:01;;;;;;;2.10;0.90;;;21.50;45.90;;;;;;4946159;29;20293;-52
2021/11/18 10:43:34;;;;;;;2.55;0.82;;;21.50;45.90;;;;;;4950815;29;20289;-50
2021/11/18 10:46:26;;;;;;;2.08;0.90;;;21.40;46.00;;;;;;4949986;28;20290;-49
2021/11/18 10:49:11;;;;;;;3.67;1.10;;;21.40;46.00;;;;;;4949609;28;20252;-49
2021/11/18 10:51:50;;;;;;;2.63;1.13;;;21.40;46.10;;;;;;4949166;28;20207;-46
2021/11/18 10:54:22;;;;;;;4.05;1.02;;;21.40;46.70;;;;;;4951913;28;20221;-46
2021/11/18 10:57:03;;;;;;;3.17;1.23;;;21.30;46.10;;;;;;4955272;28;20205;-49
2021/11/18 10:59:38;;;;;;;1.20;0.80;;;21.20;46.10;;;;;;4948647;28;20202;-49
2021/11/18 11:02:23;;;;;;;1.75;1.00;;;21.20;46.10;;;;;;4948960;28;20213;-47
2021/11/18 11:04:56;;;;;;;1.48;0.70;;;21.20;46.10;;;;;;4949720;28;20218;-50
2021/11/18 11:07:43;;;;;;;2.97;1.05;;;21.20;46.10;;;;;;4954177;28;20754;-49
2021/11/18 11:10:16;;;;;;;3.30;0.98;;;21.20;46.10;;;;;;4944101;28;20230;-52
2021/11/18 11:12:53;;;;;;;2.25;0.95;;;21.20;46.10;;;;;;4953938;28;20210;-49
2021/11/18 11:15:57;;;;;;;1.55;0.93;;;21.10;46.10;;;;;;4953110;28;20784;-50
2021/11/18 11:18:44;;;;;;;2.70;0.80;;;21.10;46.80;;;;;;4952161;28;20289;-48
2021/11/18 11:21:38;;;;;;;2.15;1.17;;;21.10;46.10;;;;;;4953083;28;20635;-52
2021/11/18 11:24:54;;;;;;;2.22;0.93;;;21.10;46.20;;;;;;4952376;28;20725;-48
2021/11/18 11:27:58;;;;;;;3.15;0.90;;;21.00;46.30;;;;;;4951678;28;20230;-51
2021/11/18 11:30:48;;;;;;;2.22;1.05;;;21.00;46.30;;;;;;4950563;28;20206;-47
2021/11/18 11:33:25;;;;;;;2.10;0.90;;;21.00;46.30;;;;;;4951941;28;20207;-47
2021/11/18 11:36:02;;;;;;;2.65;0.90;;;20.90;46.30;;;;;;4943777;28;20663;-51
2021/11/18 11:38:59;;;;;;;4.05;1.30;;;20.90;46.40;;;;;;4947012;28;20194;-45
2021/11/18 11:42:01;;;;;;;3.60;1.00;;;20.90;46.40;;;;;;4946690;28;20635;-48
2021/11/18 11:44:42;;;;;;;1.33;0.80;;;20.80;46.40;;;;;;4952035;28;20222;-48
2021/11/18 11:47:20;;;;;;;2.35;0.82;;;20.80;46.50;;;;;;4947614;28;20203;-47
2021/11/18 11:49:59;;;;;;;1.92;0.93;;;20.80;46.40;;;;;;4941811;28;20252;-46
2021/11/18 11:52:52;;;;;;;2.10;0.90;;;20.70;46.40;;;;;;4951823;28;20209;-49
2021/11/18 11:55:34;;;;;;;2.10;0.82;;;20.70;46.50;;;;;;4951792;28;20219;-47
2021/11/18 11:58:10;;;;;;;3.13;1.00;;;20.70;46.40;;;;;;4938014;29;20213;-47
2021/11/18 12:00:57;;;;;;;1.13;0.73;;;20.70;46.50;;;;;;4953523;29;20221;-50
2021/11/18 12:03:41;;;;;;;1.65;1.08;;;20.70;46.50;;;;;;4953618;29;20310;-50
2021/11/18 12:06:17;;;;;;;2.17;1.10;;;20.60;46.60;;;;;;4952490;28;20206;-50
2021/11/18 12:08:54;;;;;;;3.33;0.80;;;20.60;46.60;;;;;;4951812;28;20226;-52
2021/11/18 12:11:50;;;;;;;1.70;0.90;;;20.60;46.60;;;;;;4951397;28;20208;-49
2021/11/18 12:14:32;;;;;;;2.72;0.95;;;20.60;46.60;;;;;;4947420;28;20222;-47
2021/11/18 12:17:07;;;;;;;2.33;0.70;;;20.60;46.60;;;;;;4945003;28;20210;-48
2021/11/18 12:19:46;;;;;;;1.92;0.70;;;20.50;46.60;;;;;;4942758;28;20302;-48
2021/11/18 12:22:59;;;;;;;2.17;0.80;;;20.50;46.70;;;;;;4951177;28;20198;-50
2021/11/18 12:25:45;;;;;;;2.63;0.85;;;20.50;46.70;;;;;;4944885;29;20222;-47
2021/11/18 12:28:29;;;;;;;2.42;0.90;;;20.40;46.60;;;;;;4936797;29;20348;-47
2021/11/18 12:31:24;;;;;;;1.10;0.75;;;20.40;46.60;;;;;;4951871;28;20213;-50
2021/11/18 12:33:58;;;;;;;1.77;0.80;;;20.40;46.60;;;;;;4939060;29;20840;-49
2021/11/18 12:36:59;;;;;;;2.90;1.10;;;20.40;46.60;;;;;;4952565;28;20199;-50
2021/11/18 12:39:50;;;;;;;1.65;0.80;;;20.30;46.70;;;;;;4936465;28;20286;-52
2021/11/18 12:42:47;;;;;;;1.45;0.80;;;20.40;46.70;;;;;;4952132;29;20207;-46
2021/11/18 12:45:46;;;;;;;1.33;0.80;;;20.30;46.70;;;;;;4952522;29;20214;-47
2021/11/18 12:48:23;;;;;;;1.55;0.65;;;20.30;46.70;;;;;;4952273;28;20207;-47
2021/11/18 12:51:24;;;;;;;1.30;0.90;;;20.30;46.70;;;;;;4951674;28;20213;-49
2021/11/18 12:54:20;;;;;;;2.35;0.88;;;20.30;46.80;;;;;;4950258;29;20317;-48
2021/11/18 12:57:15;;;;;;;0.77;0.50;;;20.30;46.80;;;;;;4951376;28;20202;-47
2021/11/18 13:00:09;;;;;;;1.92;0.70;;;20.20;46.70;;;;;;4926864;28;20203;-51
2021/11/18 13:02:58;;;;;;;1.30;0.70;;;20.20;46.80;;;;;;4951787;28;20559;-51
2021/11/18 13:05:48;;;;;;;1.38;1.00;;;20.20;46.80;;;;;;4954671;28;20734;-49
2021/11/18 13:08:57;;;;;;;0.70;0.70;;;20.10;46.80;;;;;;4951131;28;20314;-48
2021/11/18 13:12:01;;;;;;;2.70;1.00;;;20.10;46.80;;;;;;4950324;28;20206;-49
2021/11/18 13:14:59;;;;;;;1.40;0.80;;;20.10;46.80;;;;;;4950762;28;20313;-45
2021/11/18 13:17:47;;;;;;;1.15;0.70;;;20.00;46.80;;;;;;4950722;28;20201;-51
2021/11/18 13:20:43;;;;;;;2.35;1.02;;;20.00;46.80;;;;;;4949819;28;20207;-48
2021/11/18 13:23:40;;;;;;;1.17;0.60;;;20.00;46.90;;;;;;4950036;28;20297;-45
2021/11/18 13:26:21;;;;;;;2.15;1.05;;;20.00;46.90;;;;;;4950259;28;20203;-51
2021/11/18 13:29:07;;;;;;;1.38;0.80;;;20.00;47.50;;;;;;4950059;28;20582;-47